📊 Raw Sensor Data

Showing records 45851 to 45875 of 85,060 total

ID Distance (ft) Battery V Battery A Int Temp (°F) Int Humid (%) Ext Temp (°F) Solar V RSSI SNR Time Stamp
39222 -- 3.96 -10 71 51 69 2.10 -72 7 04/29/2025 08:00 PM
39221 -- 4.04 0 74 51 72 4.50 -73 9 04/29/2025 07:45 PM
39220 -- 4.06 8 77 51 73 4.50 -73 9 04/29/2025 07:30 PM
39219 -- 4.03 -6 82 49 78 4.50 -72 8 04/29/2025 07:15 PM
39218 -- 4.03 13 83 50 79 4.50 -72 7 04/29/2025 07:00 PM
39217 -- 4.03 17 85 50 77 4.50 -72 7 04/29/2025 06:45 PM
39216 -- 4.13 0 90 47 82 5.10 -72 8 04/29/2025 06:30 PM
39215 -- 4.02 0 93 45 84 5.10 -72 8 04/29/2025 06:15 PM
39214 -- 4.02 0 92 45 87 5.10 -72 9 04/29/2025 06:00 PM
39213 15.5 4.02 0 88 49 83 5.10 -71 8 04/29/2025 05:45 PM
39212 -- 4.02 0 92 46 87 5.10 -74 9 04/29/2025 05:30 PM
39211 -- 4.02 0 94 46 87 5.10 -72 9 04/29/2025 05:15 PM
39210 -- 4.10 0 96 44 86 5.10 -71 8 04/29/2025 05:00 PM
39209 -- 4.02 0 96 43 86 5.10 -72 8 04/29/2025 04:45 PM
39208 -- 4.02 0 96 43 89 5.10 -73 8 04/29/2025 04:30 PM
39207 15.6 4.02 0 95 43 86 5.10 -72 8 04/29/2025 04:15 PM
39206 15.6 4.02 0 93 43 87 5.10 -72 8 04/29/2025 04:00 PM
39205 15.6 4.02 0 94 43 83 5.10 -74 8 04/29/2025 03:45 PM
39204 15.6 4.02 0 96 41 85 5.10 -73 8 04/29/2025 03:30 PM
39203 15.7 4.02 0 96 40 88 5.10 -72 7 04/29/2025 03:15 PM
39202 -- 4.02 0 95 39 87 5.10 -74 8 04/29/2025 03:01 PM
39201 15.6 4.02 0 94 39 86 5.10 -73 8 04/29/2025 02:45 PM
39200 -- 4.02 0 92 39 84 5.10 -73 9 04/29/2025 02:30 PM
39199 -- 4.02 0 91 39 84 5.10 -74 8 04/29/2025 02:15 PM
39198 15.6 4.02 0 90 39 78 5.10 -73 7 04/29/2025 02:00 PM